Time;durP1;ratioP1;P1;durP2;ratioP2;P2;SDS_P1;SDS_P2;PMS_P1;PMS_P2;Temp;Humidity;BMP_temperature;BMP_pressure;BME280_temperature;BME280_humidity;BME280_pressure;Samples;Min_cycle;Max_cycle;Signal;HPM_P1;HPM_P2
2023/05/06 00:00:01;;;;;;;;;27.00;27.00;;;;;10.84;98.81;99730.22;6280557;20;2854530;-61
2023/05/06 00:02:30;;;;;;;;;25.00;23.67;;;;;10.91;98.88;99727.06;6312374;20;2854468;-61
2023/05/06 00:04:58;;;;;;;;;25.00;25.00;;;;;10.74;99.00;99725.44;6314096;20;2845047;-61
2023/05/06 00:07:27;;;;;;;;;29.00;25.00;;;;;10.62;99.45;99726.16;6285504;20;3596161;-61
2023/05/06 00:09:56;;;;;;;;;31.33;30.00;;;;;10.68;98.55;99723.09;6279527;20;2856672;-62
2023/05/06 00:12:24;;;;;;;;;26.33;25.00;;;;;10.74;98.35;99730.78;6317354;20;3582616;-61
2023/05/06 00:14:52;;;;;;;;;26.00;22.00;;;;;10.44;98.62;99735.34;6279705;20;2833628;-62
2023/05/06 00:17:20;;;;;;;;;27.00;22.00;;;;;10.37;98.82;99725.91;6283418;20;2841976;-62
2023/05/06 00:19:51;;;;;;;;;23.00;23.00;;;;;10.38;97.98;99725.84;6282199;20;2840022;-62
2023/05/06 00:22:19;;;;;;;;;25.00;22.50;;;;;10.46;97.79;99725.38;6283588;20;2843162;-62
2023/05/06 00:24:46;;;;;;;;;22.00;22.00;;;;;10.33;97.92;99727.94;6276931;20;2459788;-61
2023/05/06 00:27:15;;;;;;;;;23.00;22.50;;;;;10.31;98.71;99721.78;6283267;20;2849273;-61
2023/05/06 00:29:44;;;;;;;;;30.67;28.00;;;;;10.39;98.62;99732.91;6281529;20;2860892;-61
2023/05/06 00:32:13;;;;;;;;;31.33;24.67;;;;;10.52;99.19;99727.69;6313717;20;3598162;-62
2023/05/06 00:34:42;;;;;;;;;28.67;27.33;;;;;10.21;98.88;99737.53;6278780;20;3600403;-61
2023/05/06 00:37:10;;;;;;;;;28.33;27.33;;;;;10.38;99.32;99733.03;6315728;20;3594205;-61
2023/05/06 00:39:38;;;;;;;;;32.00;27.50;;;;;10.58;99.71;99727.28;6280604;20;2857601;-62
2023/05/06 00:42:06;;;;;;;;;30.67;25.33;;;;;10.58;98.79;99727.28;6282861;20;3582664;-61
2023/05/06 00:44:36;;;;;;;;;27.33;26.33;;;;;10.62;99.34;99723.47;6277058;20;2855650;-61
2023/05/06 00:47:04;;;;;;;;;26.67;26.67;;;;;10.52;99.88;99730.38;6309386;20;3596095;-62
2023/05/06 00:49:33;;;;;;;;;25.00;25.00;;;;;10.59;100.00;99725.50;6279064;20;2850284;-62
2023/05/06 00:52:02;;;;;;;;;25.00;22.67;;;;;10.16;100.00;99734.25;6280264;20;3587744;-62
2023/05/06 00:54:30;;;;;;;;;25.00;25.00;;;;;9.83;99.88;99735.28;6278459;20;2850390;-62
2023/05/06 00:57:00;;;;;;;;;27.00;24.00;;;;;10.15;99.90;99737.91;6278525;20;2846130;-62
2023/05/06 00:59:28;;;;;;;;;31.00;25.00;;;;;10.12;99.69;99738.09;6275850;20;2850037;-62
2023/05/06 01:01:58;;;;;;;;;33.33;25.33;;;;;10.24;100.00;99736.47;6279236;20;3614886;-61
2023/05/06 01:04:28;;;;;;;;;29.33;29.00;;;;;10.49;100.00;99735.94;6311904;20;3599254;-62
2023/05/06 01:07:41;;;;;;;;;32.33;27.00;;;;;10.44;100.00;99735.34;6276857;20;2869158;-62
2023/05/06 01:10:30;;;;;;;;;26.00;24.00;;;;;10.35;99.77;99741.25;6308513;20;3584620;-62
2023/05/06 01:13:49;;;;;;;;;25.50;23.00;;;;;9.95;99.56;99740.88;6277878;20;2838835;-62
2023/05/06 01:16:20;;;;;;;;;25.50;23.00;;;;;10.08;99.52;99748.16;6271937;20;2848238;-61
2023/05/06 01:18:50;;;;;;;;;26.00;26.00;;;;;10.05;98.94;99744.75;6275329;20;2843094;-62
2023/05/06 01:21:20;;;;;;;;;24.50;24.50;;;;;9.71;99.56;99744.03;6277339;20;2847141;-61
2023/05/06 01:23:54;;;;;;;;;30.00;24.50;;;;;9.53;100.00;99735.22;6276917;20;2850237;-61
2023/05/06 01:26:24;;;;;;;;;26.00;24.00;;;;;9.71;100.00;99737.81;6277001;20;2846110;-61
2023/05/06 01:28:53;;;;;;;;;29.50;23.50;;;;;9.72;100.00;99735.03;6280192;20;2851319;-62
2023/05/06 01:31:39;;;;;;;;;25.00;23.00;;;;;9.81;100.00;99737.19;6279454;20;2848335;-62
2023/05/06 01:34:41;;;;;;;;;23.50;23.00;;;;;9.76;100.00;99733.91;6276712;20;2845127;-62
2023/05/06 01:37:22;;;;;;;;;27.00;27.00;;;;;9.91;100.00;99733.97;6276787;20;2839838;-62
2023/05/06 01:39:55;;;;;;;;;24.00;24.00;;;;;9.85;100.00;99730.69;6278247;20;2848208;-62
2023/05/06 01:42:26;;;;;;;;;28.67;26.33;;;;;9.85;100.00;99735.22;6279268;20;2858669;-62
2023/05/06 01:44:56;;;;;;;;;23.00;22.67;;;;;9.84;100.00;99738.81;6310674;20;3581511;-61
2023/05/06 01:47:25;;;;;;;;;29.00;28.00;;;;;9.81;100.00;99734.50;6273451;20;3610717;-62
2023/05/06 01:49:55;;;;;;;;;25.67;25.67;;;;;9.87;100.00;99731.47;6309563;20;2848193;-62
2023/05/06 01:52:25;;;;;;;;;26.67;26.33;;;;;9.90;100.00;99733.13;6311914;20;3582606;-61
2023/05/06 01:54:54;;;;;;;;;31.33;29.00;;;;;9.99;100.00;99731.72;6276443;20;2865027;-61
2023/05/06 01:57:23;;;;;;;;;31.00;31.00;;;;;10.04;100.00;99725.13;6311252;20;2867072;-62
2023/05/06 01:59:51;;;;;;;;;32.67;29.00;;;;;9.96;100.00;99726.53;6311985;20;3603387;-62
2023/05/06 02:02:20;;;;;;;;;27.33;27.00;;;;;9.93;100.00;99721.34;6278426;20;2846156;-62
2023/05/06 02:04:50;;;;;;;;;26.50;23.00;;;;;9.98;100.00;99711.19;6308958;20;2837785;-62
2023/05/06 02:07:19;;;;;;;;;28.33;27.00;;;;;9.94;100.00;99717.72;6279264;20;3598169;-61
2023/05/06 02:09:47;;;;;;;;;27.33;26.00;;;;;9.95;100.00;99714.06;6310690;20;3588829;-61
2023/05/06 02:12:16;;;;;;;;;28.67;27.33;;;;;10.01;100.00;99716.41;6281553;20;2854562;-62
2023/05/06 02:14:44;;;;;;;;;29.67;27.00;;;;;9.81;100.00;99715.72;6318611;20;3587894;-62
2023/05/06 02:17:14;;;;;;;;;26.33;26.33;;;;;9.68;100.00;99717.38;6284100;20;2852447;-61
2023/05/06 02:19:43;;;;;;;;;34.00;27.67;;;;;9.52;100.00;99716.53;6317395;20;3608575;-62
2023/05/06 02:22:11;;;;;;;;;32.67;27.67;;;;;9.48;100.00;99721.22;6317730;20;3607602;-61
2023/05/06 02:24:40;;;;;;;;;31.33;29.33;;;;;9.42;100.00;99709.00;6284723;20;2858573;-62
2023/05/06 02:27:08;;;;;;;;;31.33;30.00;;;;;9.47;100.00;99711.44;6320418;20;3600280;-62
2023/05/06 02:29:37;;;;;;;;;31.67;30.33;;;;;9.54;100.00;99709.28;6285094;20;3605532;-62
2023/05/06 02:32:05;;;;;;;;;30.33;25.33;;;;;9.48;100.00;99714.97;6317861;20;3588045;-62
2023/05/06 02:34:34;;;;;;;;;28.33;28.00;;;;;9.78;100.00;99718.59;6316908;20;3592390;-62
2023/05/06 02:37:03;;;;;;;;;29.33;28.00;;;;;9.62;100.00;99718.63;6277681;20;3599541;-62
2023/05/06 02:39:31;;;;;;;;;32.67;29.33;;;;;9.73;100.00;99704.59;6317878;20;3601288;-61
2023/05/06 02:42:00;;;;;;;;;29.50;29.00;;;;;9.80;100.00;99705.97;6282140;20;2840877;-62
2023/05/06 02:44:28;;;;;;;;;44.00;36.00;;;;;9.83;100.00;99721.88;6284030;20;2864867;-61
2023/05/06 02:46:57;;;;;;;;;41.00;34.67;;;;;9.94;100.00;99720.38;6280347;20;2858678;-62
2023/05/06 02:49:25;;;;;;;;;38.00;35.00;;;;;9.60;100.00;99720.50;6316922;20;3592007;-62
2023/05/06 02:51:53;;;;;;;;;26.50;25.00;;;;;9.39;100.00;99716.38;6282111;20;2846116;-62
2023/05/06 02:54:22;;;;;;;;;30.67;29.33;;;;;9.22;100.00;99720.88;6280482;20;3595075;-62
2023/05/06 02:56:51;;;;;;;;;27.50;25.50;;;;;8.94;100.00;99721.50;6312365;20;2836902;-62
2023/05/06 02:59:20;;;;;;;;;28.00;25.67;;;;;8.98;100.00;99723.06;6283603;20;2848194;-62
2023/05/06 03:01:49;;;;;;;;;25.67;25.00;;;;;9.02;100.00;99719.28;6314076;20;2846112;-62
2023/05/06 03:04:18;;;;;;;;;27.00;25.67;;;;;9.16;100.00;99718.53;6311927;20;3587870;-62
2023/05/06 03:06:47;;;;;;;;;27.00;22.67;;;;;9.07;100.00;99736.91;6314252;20;3583640;-62
2023/05/06 03:09:15;;;;;;;;;21.00;21.00;;;;;9.04;100.00;99727.22;6281153;20;2847158;-62
2023/05/06 03:11:45;;;;;;;;;29.67;28.67;;;;;9.28;100.00;99730.38;6284516;20;2858685;-62
2023/05/06 03:14:13;;;;;;;;;29.67;29.67;;;;;9.01;100.00;99727.41;6318361;20;3594051;-62
2023/05/06 03:16:42;;;;;;;;;30.67;30.67;;;;;9.30;100.00;99733.84;6277614;20;2847145;-62
2023/05/06 03:19:11;;;;;;;;;34.67;32.00;;;;;9.44;100.00;99731.22;6315746;20;3589866;-62
2023/05/06 03:21:40;;;;;;;;;31.00;29.33;;;;;9.55;100.00;99737.81;6278844;20;3598292;-62
2023/05/06 03:24:10;;;;;;;;;30.00;27.33;;;;;9.55;100.00;99737.81;6309141;20;2854549;-62
2023/05/06 03:26:38;;;;;;;;;27.00;27.00;;;;;9.28;100.00;99735.72;6311468;20;2848297;-62
2023/05/06 03:29:07;;;;;;;;;25.50;25.50;;;;;9.11;100.00;99733.09;6278992;20;2841373;-62
2023/05/06 03:31:36;;;;;;;;;30.00;29.67;;;;;9.16;100.00;99736.38;6282244;20;2854589;-62
2023/05/06 03:34:05;;;;;;;;;38.00;31.00;;;;;9.56;100.00;99735.06;6311062;20;3628510;-62
2023/05/06 03:36:33;;;;;;;;;31.33;28.00;;;;;9.74;100.00;99741.19;6314426;20;3579462;-62
2023/05/06 03:39:02;;;;;;;;;32.33;32.00;;;;;9.44;100.00;99741.09;6277543;20;2862946;-62
2023/05/06 03:41:31;;;;;;;;;34.67;31.33;;;;;9.64;100.00;99743.53;6313786;20;2865089;-61
2023/05/06 03:44:00;;;;;;;;;36.00;31.33;;;;;9.56;100.00;99736.88;6315981;20;3614842;-62
2023/05/06 03:46:29;;;;;;;;;34.33;31.00;;;;;9.63;100.00;99740.91;6279105;20;3609709;-62
2023/05/06 03:48:59;;;;;;;;;35.33;32.33;;;;;10.01;100.00;99735.19;6315023;20;3601332;-62
2023/05/06 03:51:28;;;;;;;;;34.00;33.00;;;;;10.08;100.00;99737.41;6283444;20;2841972;-61
2023/05/06 03:53:57;;;;;;;;;34.00;32.50;;;;;10.19;100.00;99728.72;6282248;20;2854528;-62
2023/05/06 03:56:25;;;;;;;;;37.00;33.00;;;;;10.33;100.00;99728.78;6281683;20;2852462;-62
2023/05/06 03:58:54;;;;;;;;;37.00;34.00;;;;;10.28;100.00;99730.88;6283117;20;2859629;-62
2023/05/06 04:01:22;;;;;;;;;33.00;28.67;;;;;10.36;100.00;99729.56;6317304;20;3602353;-62
2023/05/06 04:03:53;;;;;;;;;34.00;33.00;;;;;10.52;100.00;99725.00;6280739;20;2853704;-62
2023/05/06 04:06:22;;;;;;;;;38.33;34.67;;;;;10.50;100.00;99726.91;6313875;20;3615937;-62
2023/05/06 04:08:50;;;;;;;;;35.67;31.33;;;;;10.57;100.00;99719.34;6283800;20;3597158;-62
2023/05/06 04:11:19;;;;;;;;;35.00;32.00;;;;;11.07;100.00;99732.31;6282164;20;2854452;-62
2023/05/06 04:13:47;;;;;;;;;39.00;34.50;;;;;11.51;97.11;99730.47;6314883;20;2846143;-62
2023/05/06 04:16:15;;;;;;;;;38.50;32.00;;;;;11.70;95.67;99730.13;6278337;20;2843200;-62
2023/05/06 04:18:45;;;;;;;;;40.67;34.00;;;;;11.46;96.41;99733.44;6282468;20;2852325;-62
2023/05/06 04:21:14;;;;;;;;;45.00;38.33;;;;;11.82;95.38;99727.50;6311719;20;2859636;-62
2023/05/06 04:23:43;;;;;;;;;33.00;31.00;;;;;12.17;93.97;99735.06;6315886;20;3596165;-62
2023/05/06 04:26:11;;;;;;;;;39.00;34.50;;;;;12.74;91.92;99739.25;6278238;20;2869474;-62
2023/05/06 04:28:39;;;;;;;;;39.67;34.00;;;;;12.65;91.72;99742.59;6285314;20;3604454;-62
2023/05/06 04:31:07;;;;;;;;;37.33;33.33;;;;;12.61;90.65;99739.25;6282521;20;3599366;-62
2023/05/06 04:33:36;;;;;;;;;37.00;32.67;;;;;12.59;91.17;99749.25;6277325;20;3612761;-62
2023/05/06 04:36:05;;;;;;;;;32.67;30.33;;;;;12.97;89.93;99740.31;6278769;20;2853430;-61
2023/05/06 04:38:34;;;;;;;;;33.67;30.00;;;;;14.45;83.56;99743.84;6312238;20;3588800;-61
2023/05/06 04:41:03;;;;;;;;;28.00;26.50;;;;;15.22;78.15;99755.00;6277357;20;2843233;-61
2023/05/06 04:43:32;;;;;;;;;26.00;24.33;;;;;15.04;78.35;99762.72;6279481;20;2854516;-61
2023/05/06 04:46:01;;;;;;;;;30.00;28.67;;;;;14.44;80.83;99752.94;6312533;20;3584742;-61
2023/05/06 04:48:29;;;;;;;;;29.67;27.67;;;;;14.50;81.12;99753.31;6281392;20;3581049;-60
2023/05/06 04:50:58;;;;;;;;;29.00;27.67;;;;;13.94;84.63;99752.25;6276651;20;2856755;-61
2023/05/06 04:53:26;;;;;;;;;32.67;30.67;;;;;13.94;85.04;99761.19;6313376;20;3598248;-61
2023/05/06 04:55:55;;;;;;;;;27.00;27.00;;;;;14.22;84.71;99751.91;6281161;20;3600283;-61
2023/05/06 04:58:23;;;;;;;;;27.33;27.33;;;;;14.45;83.68;99754.66;6282225;20;3591921;-61
2023/05/06 05:00:51;;;;;;;;;38.00;30.67;;;;;14.31;84.19;99754.88;6281327;20;3607561;-61
2023/05/06 05:03:20;;;;;;;;;33.33;31.67;;;;;14.24;83.92;99749.06;6281008;20;3589970;-61
2023/05/06 05:05:48;;;;;;;;;35.67;31.67;;;;;14.30;85.76;99753.13;6282571;20;3581543;-61
2023/05/06 05:08:16;;;;;;;;;31.67;30.00;;;;;14.48;85.02;99757.13;6282203;20;3585696;-60
2023/05/06 05:10:45;;;;;;;;;30.33;29.67;;;;;14.27;86.22;99765.91;6274778;20;2843095;-61
2023/05/06 05:13:14;;;;;;;;;33.67;29.00;;;;;14.18;86.04;99768.44;6312273;20;3610686;-61
2023/05/06 05:15:42;;;;;;;;;33.33;30.00;;;;;14.10;85.82;99758.22;6278860;20;3585714;-60
2023/05/06 05:18:11;;;;;;;;;32.33;30.33;;;;;13.70;88.72;99765.72;6280193;20;2855108;-61
2023/05/06 05:20:40;;;;;;;;;31.67;29.33;;;;;13.92;87.92;99764.97;6313088;20;3577438;-61
2023/05/06 05:23:08;;;;;;;;;31.33;29.67;;;;;14.38;85.61;99766.94;6278680;20;3591951;-61
2023/05/06 05:25:37;;;;;;;;;33.00;30.67;;;;;14.59;84.00;99775.28;6276503;20;2843112;-61
2023/05/06 05:28:05;;;;;;;;;30.00;30.00;;;;;14.18;85.34;99777.38;6312621;20;3585658;-61
2023/05/06 05:30:34;;;;;;;;;29.33;29.00;;;;;13.95;87.77;99775.53;6277972;20;3596056;-61
2023/05/06 05:33:02;;;;;;;;;26.33;23.33;;;;;13.78;88.13;99774.97;6314205;20;3583624;-61
2023/05/06 05:35:31;;;;;;;;;31.00;29.33;;;;;14.17;87.18;99769.41;6277698;20;3581762;-62
2023/05/06 05:37:59;;;;;;;;;30.00;27.67;;;;;14.40;86.36;99765.84;6279372;20;3593000;-61
2023/05/06 05:40:27;;;;;;;;;31.00;30.00;;;;;14.36;86.72;99774.28;6277743;20;3586761;-61
2023/05/06 05:42:55;;;;;;;;;30.67;29.33;;;;;14.43;86.60;99770.16;6277692;20;3583613;-61
2023/05/06 05:45:23;;;;;;;;;27.67;27.67;;;;;14.43;87.00;99771.00;6281388;20;3587754;-61
2023/05/06 05:47:52;;;;;;;;;28.33;23.00;;;;;14.50;86.76;99772.25;6281904;20;3582779;-60
2023/05/06 05:50:22;;;;;;;;;30.00;29.33;;;;;14.52;87.04;99782.94;6286512;20;2848221;-61
2023/05/06 05:52:50;;;;;;;;;36.67;31.00;;;;;14.57;86.91;99782.63;6321368;20;3604533;-61
2023/05/06 05:55:19;;;;;;;;;34.67;30.00;;;;;14.61;87.29;99787.69;6287304;20;2846232;-61
2023/05/06 05:57:47;;;;;;;;;29.00;29.00;;;;;14.83;85.52;99783.31;6319997;20;3595305;-61
2023/05/06 06:00:16;;;;;;;;;35.67;31.67;;;;;14.70;86.50;99792.38;6290039;20;3609656;-61
2023/05/06 06:02:45;;;;;;;;;25.67;25.67;;;;;14.65;86.43;99797.28;6290140;20;3592008;-61
2023/05/06 06:05:13;;;;;;;;;26.67;26.67;;;;;14.77;87.28;99794.59;6290295;20;3585831;-61
2023/05/06 06:07:42;;;;;;;;;26.33;23.67;;;;;14.97;86.69;99798.47;6284713;20;2847188;-61
2023/05/06 06:10:12;;;;;;;;;30.00;28.33;;;;;14.82;87.17;99792.41;6319448;20;3599284;-61
2023/05/06 06:12:42;;;;;;;;;29.67;29.00;;;;;14.71;88.06;99796.78;6290226;20;3593093;-61
2023/05/06 06:15:11;;;;;;;;;34.67;30.33;;;;;14.70;88.06;99799.63;6288699;20;3580497;-62
2023/05/06 06:17:40;;;;;;;;;31.00;29.67;;;;;14.74;88.54;99789.44;6285839;20;2844157;-61
2023/05/06 06:20:10;;;;;;;;;32.00;29.67;;;;;14.42;89.39;99793.56;6317570;20;2844107;-61
2023/05/06 06:22:39;;;;;;;;;30.00;27.50;;;;;14.62;89.21;99797.50;6320209;20;2720106;-62
2023/05/06 06:25:08;;;;;;;;;34.00;32.00;;;;;14.33;92.33;99788.03;6319416;20;3597647;-61
2023/05/06 06:27:37;;;;;;;;;45.67;35.33;;;;;14.55;90.13;99785.44;6285664;20;2850326;-62
2023/05/06 06:30:06;;;;;;;;;39.67;34.67;;;;;14.78;89.28;99790.94;6318803;20;3612160;-62
2023/05/06 06:32:37;;;;;;;;;37.00;32.33;;;;;15.16;87.84;99790.63;6286040;20;2855626;-62
2023/05/06 06:35:06;;;;;;;;;33.00;31.67;;;;;15.37;86.93;99783.50;6319413;20;3597135;-61
2023/05/06 06:37:34;;;;;;;;;31.00;30.67;;;;;16.07;84.30;99788.75;6288071;20;3575278;-61
2023/05/06 06:40:03;;;;;;;;;33.00;29.67;;;;;17.00;80.32;99785.41;6288229;20;3613809;-61
2023/05/06 06:42:31;;;;;;;;;22.33;21.67;;;;;17.84;75.54;99793.41;6288748;20;3604468;-62
2023/05/06 06:44:59;;;;;;;;;26.67;26.33;;;;;19.12;72.07;99791.50;6284697;20;3597182;-62
2023/05/06 06:47:28;;;;;;;;;25.33;23.33;;;;;19.29;68.75;99795.31;6287307;20;3579620;-62
2023/05/06 06:49:56;;;;;;;;;20.00;20.00;;;;;19.59;67.90;99787.88;6288625;20;3558715;-60
2023/05/06 06:52:24;;;;;;;;;24.00;22.00;;;;;20.06;67.01;99794.13;6287520;20;3587867;-62
2023/05/06 06:54:52;;;;;;;;;22.50;22.50;;;;;19.57;69.17;99787.19;6283735;20;3467500;-62
2023/05/06 06:57:20;;;;;;;;;26.00;23.33;;;;;20.25;66.40;99797.72;6312283;20;3585796;-62
2023/05/06 06:59:51;;;;;;;;;23.33;21.00;;;;;20.36;65.28;99787.47;6288460;20;3583716;-62
2023/05/06 07:02:20;;;;;;;;;24.00;22.67;;;;;20.88;62.24;99777.72;6288915;20;3574261;-62
2023/05/06 07:04:48;;;;;;;;;16.50;16.00;;;;;20.74;63.15;99781.88;6282370;20;2827475;-62
2023/05/06 07:07:17;;;;;;;;;18.67;18.33;;;;;21.82;62.03;99782.44;6289315;20;3565008;-62
2023/05/06 07:09:45;;;;;;;;;20.33;18.67;;;;;21.92;59.62;99789.47;6284906;20;3565973;-60
2023/05/06 07:12:13;;;;;;;;;18.00;18.00;;;;;21.89;60.63;99795.28;6287655;20;3563794;-62
2023/05/06 07:14:42;;;;;;;;;21.33;18.33;;;;;22.16;58.67;99795.19;6285124;20;2840478;-61
2023/05/06 07:17:11;;;;;;;;;17.67;16.00;;;;;22.45;57.11;99786.56;6319464;20;3561832;-63
2023/05/06 07:19:39;;;;;;;;;24.00;21.67;;;;;21.90;57.72;99796.13;6285379;20;3575414;-62
2023/05/06 07:22:07;;;;;;;;;17.67;17.67;;;;;21.99;58.43;99797.88;6288363;20;3562835;-61
2023/05/06 07:24:35;;;;;;;;;18.00;18.00;;;;;22.17;58.24;99794.16;6283650;20;2492004;-62
2023/05/06 07:27:04;;;;;;;;;16.00;16.00;;;;;21.91;58.88;99792.38;6315859;20;3562754;-61
2023/05/06 07:29:34;;;;;;;;;10.67;10.67;;;;;22.95;53.40;99802.84;6282156;20;3529562;-61
2023/05/06 07:32:03;;;;;;;;;15.67;15.67;;;;;23.51;53.68;99807.59;6287974;20;3557598;-61
2023/05/06 07:34:32;;;;;;;;;21.00;17.00;;;;;23.07;53.83;99802.56;6287041;20;3560960;-61
2023/05/06 07:37:01;;;;;;;;;18.67;18.67;;;;;22.83;55.58;99797.88;6282815;20;3564924;-59
2023/05/06 07:39:29;;;;;;;;;19.33;17.00;;;;;22.82;54.82;99797.03;6283614;20;3566960;-63
2023/05/06 07:41:57;;;;;;;;;17.00;17.00;;;;;22.39;57.13;99790.00;6283641;20;3571079;-61
2023/05/06 07:44:25;;;;;;;;;22.67;21.00;;;;;22.62;56.69;99801.13;6285360;20;3579529;-61
2023/05/06 07:46:54;;;;;;;;;20.00;20.00;;;;;22.86;54.82;99803.03;6283443;20;3573731;-62
2023/05/06 07:49:22;;;;;;;;;18.00;17.33;;;;;23.08;54.31;99807.00;6289427;20;3555488;-61
2023/05/06 07:51:51;;;;;;;;;23.33;22.33;;;;;23.33;54.30;99799.59;6316530;20;3578443;-61
2023/05/06 07:54:20;;;;;;;;;20.33;19.00;;;;;22.91;56.47;99804.25;6278666;20;2840927;-62
2023/05/06 07:56:48;;;;;;;;;21.33;21.33;;;;;23.22;54.60;99800.81;6317916;20;3576274;-61
2023/05/06 07:59:17;;;;;;;;;23.33;22.00;;;;;23.52;55.00;99798.38;6282381;20;3594018;-61
2023/05/06 08:01:46;;;;;;;;;20.67;18.00;;;;;23.61;53.50;99792.66;6313784;20;3583036;-58
2023/05/06 08:04:15;;;;;;;;;15.67;14.33;;;;;23.16;56.27;99790.53;6318777;20;3542040;-61
2023/05/06 08:06:43;;;;;;;;;20.00;20.00;;;;;23.92;55.81;99785.56;6317240;20;3572258;-62
2023/05/06 08:09:11;;;;;;;;;19.33;19.33;;;;;23.73;54.75;99784.97;6284961;20;3565892;-62
2023/05/06 08:11:49;;;;;;;;;17.00;16.00;;;;;23.58;54.18;99783.94;6286006;20;2817174;-59
2023/05/06 08:14:17;;;;;;;;;20.00;18.67;;;;;24.30;53.09;99790.19;6286847;20;3559639;-62
2023/05/06 08:16:45;;;;;;;;;22.00;21.00;;;;;23.83;51.90;99799.31;6280990;20;3582156;-58
2023/05/06 08:19:14;;;;;;;;;19.67;19.67;;;;;23.05;54.21;99791.75;6286142;20;3579412;-60
2023/05/06 08:21:42;;;;;;;;;21.00;18.00;;;;;23.94;53.18;99787.09;6283556;20;3571240;-58
2023/05/06 08:24:12;;;;;;;;;20.00;18.50;;;;;24.46;53.06;99796.59;6280333;20;2826885;-61
2023/05/06 08:26:41;;;;;;;;;19.67;18.33;;;;;24.68;51.63;99804.00;6278473;20;2844125;-60
2023/05/06 08:29:09;;;;;;;;;18.00;18.00;;;;;23.87;52.75;99797.06;6313742;20;3562930;-60
2023/05/06 08:31:37;;;;;;;;;19.00;17.67;;;;;24.29;51.97;99795.84;6280225;20;3560717;-59
2023/05/06 08:34:05;;;;;;;;;18.33;18.33;;;;;23.91;53.11;99803.03;6270807;20;3577392;-60
2023/05/06 08:36:33;;;;;;;;;17.00;17.00;;;;;24.52;53.42;99806.88;6283717;20;3556601;-59
2023/05/06 08:39:02;;;;;;;;;18.33;17.67;;;;;23.79;53.66;99794.38;6283724;20;3567054;-60
2023/05/06 08:41:32;;;;;;;;;18.67;18.67;;;;;24.53;52.98;99795.69;6286735;20;3577375;-60
2023/05/06 08:44:02;;;;;;;;;17.00;17.00;;;;;23.89;53.51;99795.00;6280098;20;3553545;-59
2023/05/06 08:46:30;;;;;;;;;19.33;17.67;;;;;24.87;52.31;99794.41;6282102;20;3579501;-59
2023/05/06 08:48:59;;;;;;;;;19.33;16.67;;;;;24.20;51.73;99797.78;6279865;20;2835933;-60
2023/05/06 08:51:30;;;;;;;;;17.33;17.00;;;;;24.28;52.82;99802.38;6318493;20;3562839;-60
2023/05/06 08:54:03;;;;;;;;;21.67;19.33;;;;;24.70;50.59;99801.09;6282837;20;3571081;-60
2023/05/06 08:56:32;;;;;;;;;17.00;17.00;;;;;24.63;51.21;99798.22;6279311;20;2839879;-60
2023/05/06 08:59:01;;;;;;;;;19.00;17.67;;;;;23.82;53.89;99792.09;6283957;20;3553592;-60
2023/05/06 09:01:29;;;;;;;;;17.00;17.00;;;;;23.63;53.92;99797.97;6284887;20;3570062;-60
2023/05/06 09:03:58;;;;;;;;;18.67;17.67;;;;;23.41;54.31;99791.38;6286133;20;3546113;-60
2023/05/06 09:06:27;;;;;;;;;20.67;19.67;;;;;23.79;52.27;99789.72;6313401;20;3573253;-60
2023/05/06 09:08:55;;;;;;;;;17.00;17.00;;;;;24.59;51.02;99785.03;6284978;20;3568208;-61
2023/05/06 09:11:28;;;;;;;;;18.67;18.00;;;;;24.82;51.36;99790.53;6313046;20;3564879;-60
2023/05/06 09:14:16;;;;;;;;;18.00;18.00;;;;;24.59;51.27;99785.88;6312976;20;2834653;-60
2023/05/06 09:16:48;;;;;;;;;22.00;21.00;;;;;25.56;50.91;99782.44;6280943;20;3576327;-60
2023/05/06 09:19:18;;;;;;;;;17.00;17.00;;;;;25.02;50.38;99778.00;6284391;20;3577333;-60
2023/05/06 09:21:50;;;;;;;;;16.33;16.33;;;;;25.20;48.33;99780.44;6283645;20;2835721;-60
2023/05/06 09:24:19;;;;;;;;;16.00;14.00;;;;;25.85;49.61;99778.84;6323888;20;3540904;-59
2023/05/06 09:26:47;;;;;;;;;17.00;16.00;;;;;25.93;49.38;99772.41;6321576;20;3559630;-60
2023/05/06 09:29:15;;;;;;;;;15.50;15.50;;;;;25.61;47.94;99764.31;6287348;20;2821124;-60
2023/05/06 09:31:45;;;;;;;;;17.67;16.33;;;;;26.21;47.78;99772.53;6287704;20;3558642;-60
2023/05/06 09:34:14;;;;;;;;;12.67;12.67;;;;;26.38;47.83;99765.72;6287418;20;3516980;-60
2023/05/06 09:36:43;;;;;;;;;13.00;12.00;;;;;25.58;48.71;99763.88;6319331;20;3526446;-61
2023/05/06 09:39:11;;;;;;;;;16.67;15.33;;;;;25.61;47.47;99758.81;6321770;20;3558614;-60
2023/05/06 09:41:39;;;;;;;;;14.00;13.00;;;;;25.30;47.53;99758.16;6320848;20;3533588;-61
2023/05/06 09:44:07;;;;;;;;;14.33;14.33;;;;;25.45;46.88;99759.03;6320211;20;3535772;-61
2023/05/06 09:46:36;;;;;;;;;15.00;14.00;;;;;25.15;45.46;99758.13;6289004;20;3520205;-60
2023/05/06 09:49:04;;;;;;;;;15.00;15.00;;;;;25.97;45.78;99752.56;6319774;20;3548202;-60
2023/05/06 09:51:33;;;;;;;;;14.33;13.00;;;;;25.89;43.14;99749.09;6317887;20;3537891;-61
2023/05/06 09:54:02;;;;;;;;;15.33;14.33;;;;;25.61;41.34;99741.47;6319094;20;2483659;-60
2023/05/06 09:56:31;;;;;;;;;14.00;13.67;;;;;26.24;43.80;99741.88;6316639;20;2483770;-60
2023/05/06 09:59:02;;;;;;;;;16.67;14.00;;;;;25.85;43.07;99737.59;6320920;20;3544020;-60
2023/05/06 10:01:32;;;;;;;;;15.33;15.33;;;;;25.61;43.86;99731.31;6318367;20;3552373;-60
2023/05/06 10:04:08;;;;;;;;;12.67;12.67;;;;;26.79;43.63;99732.06;6286951;20;3531618;-59
2023/05/06 10:06:39;;;;;;;;;16.00;15.33;;;;;26.59;44.32;99720.00;6321262;20;3542989;-60
2023/05/06 10:09:08;;;;;;;;;16.00;16.00;;;;;25.33;46.14;99725.66;6323031;20;3556503;-60
2023/05/06 10:11:37;;;;;;;;;16.33;15.33;;;;;24.45;47.29;99718.06;6288700;20;3552376;-60
2023/05/06 10:14:06;;;;;;;;;19.67;15.00;;;;;24.92;46.74;99714.22;6317352;20;3553488;-59
2023/05/06 10:16:35;;;;;;;;;14.00;12.33;;;;;25.10;46.36;99717.47;6283926;20;3500280;-60
2023/05/06 10:19:06;;;;;;;;;16.00;15.33;;;;;25.31;44.70;99713.16;6284357;20;3550319;-60
2023/05/06 10:21:39;;;;;;;;;15.33;13.00;;;;;24.59;45.50;99714.50;6283634;20;2483599;-59
2023/05/06 10:24:11;;;;;;;;;14.00;14.00;;;;;25.34;46.27;99708.13;6317367;20;2483675;-59
2023/05/06 10:26:41;;;;;;;;;17.00;14.33;;;;;25.39;46.14;99707.56;6320497;20;3548199;-59
2023/05/06 10:29:10;;;;;;;;;15.00;15.00;;;;;26.11;43.34;99706.78;6317070;20;3534648;-59
2023/05/06 10:31:48;;;;;;;;;13.33;13.33;;;;;26.32;44.19;99711.47;6316282;20;3529415;-59
2023/05/06 10:34:19;;;;;;;;;14.67;14.67;;;;;26.08;42.27;99706.34;6320675;20;3532545;-59
2023/05/06 10:36:56;;;;;;;;;14.00;12.67;;;;;26.94;41.64;99704.44;6314986;20;2491931;-59
2023/05/06 10:39:25;;;;;;;;;15.00;11.00;;;;;27.29;39.76;99710.84;6313109;20;3520079;-57
2023/05/06 10:41:53;;;;;;;;;13.67;12.00;;;;;26.68;39.31;99699.56;6283767;20;3519069;-59
2023/05/06 10:45:02;;;;;;;;;12.67;12.00;;;;;26.37;40.46;99695.22;6316244;20;3534148;-59
2023/05/06 10:47:55;;;;;;;;;16.50;14.00;;;;;25.38;42.33;99686.59;6282737;20;2817049;-60
2023/05/06 10:50:26;;;;;;;;;12.67;12.67;;;;;25.21;42.79;99685.09;6284368;20;3537796;-59
2023/05/06 10:52:57;;;;;;;;;15.00;15.00;;;;;25.68;40.63;99686.59;6290614;20;3539874;-59
2023/05/06 10:55:29;;;;;;;;;12.67;12.67;;;;;25.83;41.82;99679.16;6286845;20;3525279;-60
2023/05/06 10:58:13;;;;;;;;;13.00;13.00;;;;;26.11;40.88;99681.19;6317275;20;3539978;-60
2023/05/06 11:00:56;;;;;;;;;17.33;17.33;;;;;26.24;42.80;99675.81;6284921;20;3564873;-59
2023/05/06 11:03:25;;;;;;;;;14.33;13.33;;;;;26.49;41.66;99673.53;6320614;20;3531570;-60
2023/05/06 11:05:53;;;;;;;;;16.00;15.33;;;;;26.19;41.48;99667.28;6318159;20;2483683;-60
2023/05/06 11:08:24;;;;;;;;;13.33;11.33;;;;;27.32;40.64;99657.19;6314130;20;3522204;-59
2023/05/06 11:10:53;;;;;;;;;12.00;12.00;;;;;26.23;40.60;99661.19;6283170;20;2793111;-57
2023/05/06 11:13:26;;;;;;;;;14.50;14.50;;;;;26.35;41.18;99650.50;6282507;20;2801393;-56